createdAt,value
2023-12-07T00:00:25.071Z,99.34
2023-12-07T00:01:26.108Z,99.34
2023-12-07T00:02:26.991Z,99.34
2023-12-07T00:03:27.113Z,99.34
2023-12-07T00:04:27.997Z,99.24
2023-12-07T00:05:28.861Z,99.24
2023-12-07T00:06:29.724Z,99.24
2023-12-07T00:07:30.656Z,99.24
2023-12-07T00:08:31.500Z,99.24
2023-12-07T00:09:32.380Z,99.34
2023-12-07T00:10:33.324Z,99.34
2023-12-07T00:11:34.177Z,99.34
2023-12-07T00:12:35.095Z,99.34
2023-12-07T00:13:36.022Z,99.34
2023-12-07T00:14:36.873Z,99.34
2023-12-07T00:15:37.761Z,99.34
2023-12-07T00:16:38.684Z,99.24
2023-12-07T00:17:39.590Z,99.24
2023-12-07T00:18:40.488Z,99.24
2023-12-07T00:19:41.522Z,99.34
2023-12-07T00:20:42.410Z,99.34
2023-12-07T00:21:43.312Z,99.34
2023-12-07T00:22:44.282Z,99.34
2023-12-07T00:23:45.136Z,99.34
2023-12-07T00:24:46.041Z,99.34
2023-12-07T00:25:46.977Z,99.44
2023-12-07T00:26:47.833Z,99.44
2023-12-07T00:27:48.716Z,99.44
2023-12-07T00:28:49.603Z,99.55
2023-12-07T00:29:50.465Z,99.44
2023-12-07T00:30:51.372Z,99.44
2023-12-07T00:31:52.330Z,99.65
2023-12-07T00:32:53.244Z,99.65
2023-12-07T00:33:54.138Z,99.65
2023-12-07T00:34:55.058Z,99.76
2023-12-07T00:35:55.964Z,99.76
2023-12-07T00:36:56.863Z,99.86
2023-12-07T00:37:57.738Z,99.86
2023-12-07T00:38:58.287Z,99.86
2023-12-07T00:39:59.175Z,99.96
2023-12-07T00:41:00.061Z,99.96
2023-12-07T00:42:00.930Z,99.86
2023-12-07T00:43:01.842Z,99.96
2023-12-07T00:44:02.721Z,99.99
2023-12-07T00:45:03.585Z,99.96
2023-12-07T00:46:04.513Z,99.96
2023-12-07T00:47:05.360Z,99.86
2023-12-07T00:48:06.301Z,99.70
2023-12-07T00:49:07.172Z,99.28
2023-12-07T00:50:08.052Z,98.97
2023-12-07T00:51:08.906Z,99.18
2023-12-07T00:52:09.812Z,99.38
2023-12-07T00:53:10.662Z,99.49
2023-12-07T00:54:11.556Z,99.70
2023-12-07T00:55:12.946Z,99.80
2023-12-07T00:56:13.052Z,99.80
2023-12-07T00:57:13.917Z,99.80
2023-12-07T00:58:14.825Z,99.91
2023-12-07T00:59:15.719Z,99.80
2023-12-07T01:00:16.616Z,99.70
2023-12-07T01:01:17.503Z,99.59
2023-12-07T01:02:18.419Z,99.49
2023-12-07T01:03:19.342Z,99.38
2023-12-07T01:04:20.230Z,99.28
2023-12-07T01:05:21.144Z,98.34
2023-12-07T01:06:22.043Z,97.71
2023-12-07T01:07:23.006Z,97.81
2023-12-07T01:08:23.898Z,98.02
2023-12-07T01:09:24.766Z,97.71
2023-12-07T01:10:25.652Z,94.05
2023-12-07T01:11:26.554Z,92.79
2023-12-07T01:12:27.457Z,93.01
2023-12-07T01:13:28.399Z,93.95
2023-12-07T01:14:29.338Z,94.36
2023-12-07T01:15:30.183Z,94.68
2023-12-07T01:16:31.100Z,95.20
2023-12-07T01:17:31.939Z,95.51
2023-12-07T01:18:32.911Z,95.62
2023-12-07T01:19:33.823Z,95.93
2023-12-07T01:20:34.728Z,96.35
2023-12-07T01:21:35.581Z,96.56
2023-12-07T01:22:36.504Z,96.45
2023-12-07T01:23:37.437Z,94.78
2023-12-07T01:24:38.385Z,93.95
2023-12-07T01:25:39.362Z,91.69
2023-12-07T01:26:40.289Z,90.64
2023-12-07T01:27:41.147Z,91.69
2023-12-07T01:28:41.750Z,92.42
2023-12-07T01:29:42.694Z,92.83
2023-12-07T01:30:43.092Z,93.67
2023-12-07T01:31:43.970Z,94.30
2023-12-07T01:32:44.915Z,94.40
2023-12-07T01:33:45.964Z,94.20
2023-12-07T01:34:46.438Z,93.36
2023-12-07T01:35:46.824Z,92.83
2023-12-07T01:36:47.728Z,91.37
2023-12-07T01:37:48.636Z,90.53
2023-12-07T01:38:49.404Z,91.06
2023-12-07T01:39:50.250Z,91.16
2023-12-07T01:40:51.138Z,91.37
2023-12-07T01:41:52.029Z,91.79
2023-12-07T01:42:52.903Z,91.79
2023-12-07T01:43:53.797Z,90.84
2023-12-07T01:44:54.708Z,90.74
2023-12-07T01:45:55.568Z,90.84
2023-12-07T01:46:56.444Z,91.58
2023-12-07T01:47:57.361Z,92.42
2023-12-07T01:48:58.346Z,92.63
2023-12-07T01:49:58.782Z,92.73
2023-12-07T01:50:59.716Z,92.94
2023-12-07T01:52:00.612Z,93.15
2023-12-07T01:53:01.466Z,93.36
2023-12-07T01:54:02.359Z,93.67
2023-12-07T01:55:03.309Z,93.88
2023-12-07T01:56:04.161Z,94.09
2023-12-07T01:57:05.117Z,94.30
2023-12-07T01:58:06.019Z,94.72
2023-12-07T01:59:06.878Z,94.93
2023-12-07T02:00:07.792Z,95.25
2023-12-07T02:01:08.740Z,95.45
2023-12-07T02:02:09.612Z,95.56
2023-12-07T02:03:10.535Z,95.76
2023-12-07T02:04:11.524Z,95.98
2023-12-07T02:05:11.959Z,95.98
2023-12-07T02:06:12.832Z,95.98
2023-12-07T02:07:13.690Z,95.98
2023-12-07T02:08:14.556Z,95.87
2023-12-07T02:09:15.499Z,95.66
2023-12-07T02:10:16.372Z,95.25
2023-12-07T02:11:17.252Z,94.93
2023-12-07T02:12:18.137Z,94.51
2023-12-07T02:13:19.051Z,94.62
2023-12-07T02:14:19.924Z,94.62
2023-12-07T02:15:20.858Z,94.72
2023-12-07T02:16:21.752Z,94.72
2023-12-07T02:17:22.603Z,94.72
2023-12-07T02:18:23.636Z,94.20
2023-12-07T02:19:24.287Z,93.99
2023-12-07T02:20:24.671Z,93.88
2023-12-07T02:21:25.603Z,93.99
2023-12-07T02:22:26.715Z,94.20
2023-12-07T02:23:36.883Z,93.99
2023-12-07T02:24:29.011Z,93.88
2023-12-07T02:25:28.961Z,93.78
2023-12-07T02:26:29.836Z,93.88
2023-12-07T02:27:30.740Z,94.09
2023-12-07T02:28:31.637Z,94.40
2023-12-07T02:29:32.565Z,94.72
2023-12-07T02:30:33.453Z,94.93
2023-12-07T02:31:34.438Z,95.03
2023-12-07T02:32:35.554Z,95.25
2023-12-07T02:33:36.044Z,95.35
2023-12-07T02:34:36.942Z,95.45
2023-12-07T02:35:37.854Z,95.56
2023-12-07T02:36:38.745Z,95.66
2023-12-07T02:37:39.690Z,95.76
2023-12-07T02:38:40.626Z,95.76
2023-12-07T02:39:41.498Z,95.66
2023-12-07T02:40:42.401Z,95.25
2023-12-07T02:41:42.898Z,93.51
2023-12-07T02:42:43.785Z,92.98
2023-12-07T02:43:44.674Z,93.61
2023-12-07T02:44:45.594Z,94.24
2023-12-07T02:45:46.505Z,94.76
2023-12-07T02:46:47.343Z,95.14
2023-12-07T02:47:48.288Z,95.50
2023-12-07T02:48:49.317Z,95.81
2023-12-07T02:49:49.800Z,96.12
2023-12-07T02:50:50.698Z,96.23
2023-12-07T02:51:51.620Z,96.44
2023-12-07T02:52:52.481Z,96.65
2023-12-07T02:53:53.350Z,96.65
2023-12-07T02:54:54.234Z,96.65
2023-12-07T02:55:55.117Z,96.33
2023-12-07T02:56:56.003Z,96.33
2023-12-07T02:57:56.938Z,96.44
2023-12-07T02:58:57.774Z,96.44
2023-12-07T02:59:58.662Z,96.33
2023-12-07T03:00:59.590Z,96.02
2023-12-07T03:02:00.521Z,95.70
2023-12-07T03:03:01.368Z,95.18
2023-12-07T03:04:02.371Z,94.87
2023-12-07T03:05:03.254Z,95.12
2023-12-07T03:06:04.128Z,95.75
2023-12-07T03:07:05.023Z,96.27
2023-12-07T03:08:05.524Z,96.59
2023-12-07T03:09:06.401Z,97.00
2023-12-07T03:10:07.339Z,97.32
2023-12-07T03:11:08.179Z,97.32
2023-12-07T03:12:09.071Z,97.32
2023-12-07T03:13:09.991Z,97.32
2023-12-07T03:14:10.867Z,97.22
2023-12-07T03:15:11.765Z,97.22
2023-12-07T03:16:12.767Z,97.00
2023-12-07T03:17:13.631Z,97.00
2023-12-07T03:18:14.586Z,97.00
2023-12-07T03:19:15.480Z,97.11
2023-12-07T03:20:16.370Z,97.22
2023-12-07T03:21:17.244Z,97.32
2023-12-07T03:22:18.181Z,97.42
2023-12-07T03:23:19.046Z,97.42
2023-12-07T03:24:19.893Z,97.11
2023-12-07T03:25:20.851Z,96.90
2023-12-07T03:26:21.731Z,96.90
2023-12-07T03:27:22.602Z,96.90
2023-12-07T03:28:23.558Z,96.69
2023-12-07T03:29:24.410Z,96.48
2023-12-07T03:30:25.334Z,96.27
2023-12-07T03:31:26.244Z,96.06
2023-12-07T03:32:27.650Z,95.86
2023-12-07T03:33:28.052Z,95.43
2023-12-07T03:34:28.986Z,94.81
2023-12-07T03:35:29.873Z,95.12
2023-12-07T03:36:32.544Z,95.54
2023-12-07T03:37:31.573Z,96.06
2023-12-07T03:38:32.422Z,96.27
2023-12-07T03:39:33.358Z,96.37
2023-12-07T03:40:34.355Z,96.48
2023-12-07T03:41:34.707Z,96.48
2023-12-07T03:42:50.684Z,96.59
2023-12-07T03:43:37.424Z,96.69
2023-12-07T03:44:37.285Z,96.69
2023-12-07T03:45:38.177Z,96.80
2023-12-07T03:46:39.142Z,96.80
2023-12-07T03:47:40.044Z,96.69
2023-12-07T03:48:40.968Z,96.69
2023-12-07T03:49:41.903Z,96.69
2023-12-07T03:50:42.794Z,96.69
2023-12-07T03:51:43.655Z,96.80
2023-12-07T03:52:44.685Z,96.69
2023-12-07T03:53:45.079Z,96.69
2023-12-07T03:54:45.973Z,96.69
2023-12-07T03:55:46.859Z,96.69
2023-12-07T03:56:47.436Z,96.69
2023-12-07T03:57:48.314Z,96.69
2023-12-07T03:58:49.258Z,96.59
2023-12-07T03:59:49.755Z,96.59
2023-12-07T04:00:50.767Z,96.69
2023-12-07T04:01:51.645Z,96.69
2023-12-07T04:02:52.642Z,96.80
2023-12-07T04:03:53.486Z,96.90
2023-12-07T04:04:54.421Z,97.00
2023-12-07T04:05:55.310Z,97.00
2023-12-07T04:06:56.216Z,97.00
2023-12-07T04:07:57.122Z,97.00
2023-12-07T04:08:58.003Z,96.90
2023-12-07T04:09:59.000Z,96.90
2023-12-07T04:10:59.449Z,96.80
2023-12-07T04:12:00.283Z,96.59
2023-12-07T04:13:01.180Z,96.17
2023-12-07T04:14:02.059Z,95.75
2023-12-07T04:15:02.955Z,95.64
2023-12-07T04:16:03.880Z,95.54
2023-12-07T04:17:04.774Z,94.81
2023-12-07T04:18:05.691Z,93.97
2023-12-07T04:19:06.708Z,93.97
2023-12-07T04:20:07.056Z,94.18
2023-12-07T04:21:07.958Z,94.43
2023-12-07T04:22:08.918Z,94.85
2023-12-07T04:23:09.805Z,94.95
2023-12-07T04:24:10.732Z,95.27
2023-12-07T04:25:11.650Z,95.48
2023-12-07T04:26:12.521Z,95.17
2023-12-07T04:27:13.399Z,94.64
2023-12-07T04:28:14.332Z,94.32
2023-12-07T04:29:15.211Z,94.32
2023-12-07T04:30:16.076Z,94.32
2023-12-07T04:31:16.976Z,94.22
2023-12-07T04:32:17.844Z,94.32
2023-12-07T04:33:18.866Z,94.54
2023-12-07T04:34:19.330Z,94.43
2023-12-07T04:35:20.245Z,94.32
2023-12-07T04:36:21.116Z,94.22
2023-12-07T04:37:22.015Z,94.22
2023-12-07T04:38:22.876Z,93.91
2023-12-07T04:39:23.750Z,93.80
2023-12-07T04:40:24.689Z,94.01
2023-12-07T04:41:25.553Z,94.01
2023-12-07T04:42:26.770Z,94.12
2023-12-07T04:43:27.372Z,94.12
2023-12-07T04:44:28.212Z,93.80
2023-12-07T04:45:29.097Z,93.49
2023-12-07T04:46:30.100Z,93.38
2023-12-07T04:47:30.995Z,93.17
2023-12-07T04:48:31.841Z,93.38
2023-12-07T04:49:32.756Z,93.27
2023-12-07T04:50:33.620Z,92.23
2023-12-07T04:51:34.533Z,92.16
2023-12-07T04:52:36.973Z,91.22
2023-12-07T04:53:35.912Z,90.07
2023-12-07T04:54:36.792Z,90.76
2023-12-07T04:55:37.680Z,91.28
2023-12-07T04:56:38.579Z,91.71
2023-12-07T04:57:39.479Z,92.13
2023-12-07T04:58:40.468Z,92.44
2023-12-07T04:59:41.350Z,91.91
2023-12-07T05:00:42.225Z,91.71
2023-12-07T05:01:43.005Z,91.91
2023-12-07T05:02:43.915Z,92.33
2023-12-07T05:03:44.841Z,92.44
2023-12-07T05:04:45.717Z,92.86
2023-12-07T05:05:46.690Z,93.17
2023-12-07T05:06:47.106Z,93.38
2023-12-07T05:07:47.956Z,93.59
2023-12-07T05:08:48.840Z,93.84
2023-12-07T05:09:49.728Z,93.91
2023-12-07T05:10:50.571Z,94.06
2023-12-07T05:11:51.468Z,94.22
2023-12-07T05:12:52.352Z,94.22
2023-12-07T05:13:53.229Z,94.16
2023-12-07T05:14:54.112Z,94.22
2023-12-07T05:15:55.016Z,94.37
2023-12-07T05:16:55.915Z,94.47
2023-12-07T05:17:56.958Z,94.68
2023-12-07T05:18:57.409Z,94.68
2023-12-07T05:19:58.322Z,94.68
2023-12-07T05:20:59.191Z,94.79
2023-12-07T05:22:00.157Z,95.00
2023-12-07T05:23:01.050Z,95.10
2023-12-07T05:24:01.912Z,95.42
2023-12-07T05:25:02.881Z,95.62
2023-12-07T05:26:03.743Z,95.73
2023-12-07T05:27:04.620Z,95.94
2023-12-07T05:28:05.567Z,96.04
2023-12-07T05:29:06.481Z,96.15
2023-12-07T05:30:07.379Z,96.25
2023-12-07T05:31:08.348Z,96.25
2023-12-07T05:32:09.205Z,96.15
2023-12-07T05:33:10.264Z,96.15
2023-12-07T05:34:10.766Z,96.15
2023-12-07T05:35:11.115Z,96.04
2023-12-07T05:36:11.990Z,96.04
2023-12-07T05:37:12.925Z,96.15
2023-12-07T05:38:13.772Z,96.15
2023-12-07T05:39:14.658Z,96.25
2023-12-07T05:40:15.567Z,96.25
2023-12-07T05:41:16.407Z,96.36
2023-12-07T05:42:17.285Z,96.25
2023-12-07T05:43:20.279Z,96.25
2023-12-07T05:44:18.800Z,96.25
2023-12-07T05:45:19.668Z,96.25
2023-12-07T05:46:20.630Z,96.25
2023-12-07T05:47:21.496Z,96.25
2023-12-07T05:48:22.485Z,96.25
2023-12-07T05:49:22.913Z,96.41
2023-12-07T05:50:23.787Z,96.41
2023-12-07T05:51:24.657Z,96.41
2023-12-07T05:52:25.842Z,96.41
2023-12-07T05:53:26.327Z,96.41
2023-12-07T05:54:27.226Z,96.41
2023-12-07T05:55:28.131Z,96.41
2023-12-07T05:56:29.104Z,96.30
2023-12-07T05:57:29.955Z,96.19
2023-12-07T05:58:30.899Z,96.09
2023-12-07T05:59:31.738Z,95.98
2023-12-07T06:00:32.715Z,95.88
2023-12-07T06:01:33.670Z,95.82
2023-12-07T06:02:34.558Z,95.92
2023-12-07T06:03:35.470Z,96.03
2023-12-07T06:04:36.388Z,96.24
2023-12-07T06:05:37.305Z,96.34
2023-12-07T06:06:38.171Z,96.34
2023-12-07T06:07:39.104Z,96.24
2023-12-07T06:08:39.998Z,96.24
2023-12-07T06:09:40.857Z,96.24
2023-12-07T06:10:41.840Z,96.34
2023-12-07T06:11:42.705Z,96.34
2023-12-07T06:12:43.620Z,96.24
2023-12-07T06:13:44.549Z,96.24
2023-12-07T06:14:45.417Z,96.39
2023-12-07T06:15:46.226Z,96.39
2023-12-07T06:16:47.147Z,96.28
2023-12-07T06:17:48.060Z,95.86
2023-12-07T06:18:49.004Z,95.76
2023-12-07T06:19:49.959Z,95.54
2023-12-07T06:20:50.517Z,95.65
2023-12-07T06:21:51.439Z,95.86
2023-12-07T06:22:52.301Z,95.97
2023-12-07T06:23:53.167Z,96.01
2023-12-07T06:24:54.053Z,96.12
2023-12-07T06:25:54.886Z,96.12
2023-12-07T06:26:55.752Z,96.12
2023-12-07T06:27:56.572Z,96.12
2023-12-07T06:28:57.401Z,96.01
2023-12-07T06:29:58.235Z,96.12
2023-12-07T06:30:59.128Z,96.12
2023-12-07T06:31:59.943Z,96.22
2023-12-07T06:33:00.827Z,96.33
2023-12-07T06:34:01.797Z,96.43
2023-12-07T06:35:02.253Z,96.53
2023-12-07T06:36:03.114Z,96.53
2023-12-07T06:37:04.022Z,96.64
2023-12-07T06:38:04.841Z,96.53
2023-12-07T06:39:05.678Z,96.53
2023-12-07T06:40:06.533Z,96.43
2023-12-07T06:41:07.348Z,96.43
2023-12-07T06:42:08.173Z,96.43
2023-12-07T06:43:09.048Z,96.64
2023-12-07T06:44:09.828Z,96.64
2023-12-07T06:45:10.662Z,96.64
2023-12-07T06:46:11.544Z,96.64
2023-12-07T06:47:12.325Z,96.64
2023-12-07T06:48:13.241Z,96.75
2023-12-07T06:49:14.279Z,96.75
2023-12-07T06:50:15.166Z,96.75
2023-12-07T06:51:16.001Z,96.64
2023-12-07T06:52:16.870Z,96.53
2023-12-07T06:53:17.680Z,96.22
2023-12-07T06:54:18.501Z,95.80
2023-12-07T06:55:19.363Z,95.80
2023-12-07T06:56:20.173Z,95.80
2023-12-07T06:57:21.004Z,95.80
2023-12-07T06:58:21.839Z,95.80
2023-12-07T06:59:22.643Z,95.70
2023-12-07T07:00:23.498Z,95.42
2023-12-07T07:01:24.380Z,94.90
2023-12-07T07:02:25.166Z,94.48
2023-12-07T07:03:26.051Z,94.37
2023-12-07T07:04:26.886Z,94.37
2023-12-07T07:05:27.725Z,94.58
2023-12-07T07:06:28.544Z,94.90
2023-12-07T07:07:29.439Z,95.10
2023-12-07T07:08:30.253Z,95.21
2023-12-07T07:09:31.073Z,95.26
2023-12-07T07:10:31.954Z,95.26
2023-12-07T07:11:32.745Z,95.47
2023-12-07T07:12:33.667Z,95.47
2023-12-07T07:13:34.496Z,95.47
2023-12-07T07:14:35.301Z,95.47
2023-12-07T07:15:36.149Z,95.47
2023-12-07T07:16:36.973Z,95.78
2023-12-07T07:17:37.854Z,95.99
2023-12-07T07:18:38.673Z,96.10
2023-12-07T07:19:39.539Z,95.99
2023-12-07T07:20:40.339Z,96.10
2023-12-07T07:21:41.172Z,95.99
2023-12-07T07:22:42.133Z,95.99
2023-12-07T07:23:42.981Z,95.78
2023-12-07T07:24:43.801Z,95.78
2023-12-07T07:25:44.698Z,95.68
2023-12-07T07:26:45.586Z,95.57
2023-12-07T07:27:46.412Z,95.47
2023-12-07T07:28:47.284Z,95.15
2023-12-07T07:29:47.918Z,94.84
2023-12-07T07:30:48.727Z,94.73
2023-12-07T07:31:49.575Z,94.84
2023-12-07T07:32:50.533Z,94.94
2023-12-07T07:34:00.203Z,95.04
2023-12-07T07:34:53.223Z,95.15
2023-12-07T07:35:55.397Z,95.15
2023-12-07T07:36:53.788Z,95.36
2023-12-07T07:37:54.698Z,95.26
2023-12-07T07:38:55.496Z,94.73
2023-12-07T07:39:56.291Z,94.10
2023-12-07T07:40:57.121Z,93.99
2023-12-07T07:41:57.962Z,93.89
2023-12-07T07:42:58.792Z,93.68
2023-12-07T07:44:01.511Z,93.26
2023-12-07T07:45:00.555Z,92.94
2023-12-07T07:46:01.393Z,92.84
2023-12-07T07:47:02.209Z,92.94
2023-12-07T07:48:03.140Z,93.15
2023-12-07T07:49:04.075Z,93.57
2023-12-07T07:50:04.908Z,93.57
2023-12-07T07:51:05.724Z,93.62
2023-12-07T07:52:06.581Z,93.72
2023-12-07T07:53:07.387Z,93.83
2023-12-07T07:54:08.241Z,93.83
2023-12-07T07:55:09.092Z,93.72
2023-12-07T07:56:09.916Z,93.72
2023-12-07T07:57:10.721Z,93.62
2023-12-07T07:58:11.554Z,93.62
2023-12-07T07:59:12.438Z,93.72
2023-12-07T08:00:13.354Z,93.93
2023-12-07T08:01:16.543Z,94.04
2023-12-07T08:02:14.737Z,94.14
2023-12-07T08:03:15.617Z,94.14
2023-12-07T08:04:16.503Z,94.35
2023-12-07T08:05:17.295Z,94.35
2023-12-07T08:06:18.170Z,94.46
2023-12-07T08:07:18.976Z,94.56
2023-12-07T08:08:19.825Z,94.88
2023-12-07T08:09:20.651Z,95.09
2023-12-07T08:10:21.515Z,95.51
2023-12-07T08:11:22.347Z,95.72
2023-12-07T08:12:23.283Z,96.03
2023-12-07T08:13:24.182Z,96.03
2023-12-07T08:14:25.014Z,95.83
2023-12-07T08:15:25.875Z,95.62
2023-12-07T08:16:26.706Z,95.51
2023-12-07T08:17:27.784Z,95.40
2023-12-07T08:18:28.462Z,95.40
2023-12-07T08:19:28.908Z,95.51
2023-12-07T08:20:29.756Z,95.62
2023-12-07T08:21:31.399Z,95.51
2023-12-07T08:22:31.518Z,95.51
2023-12-07T08:23:32.329Z,95.40
2023-12-07T08:24:33.174Z,94.98
2023-12-07T08:25:34.088Z,95.09
2023-12-07T08:26:34.885Z,95.20
2023-12-07T08:27:35.734Z,95.20
2023-12-07T08:28:36.538Z,94.98
2023-12-07T08:29:37.358Z,94.88
2023-12-07T08:30:38.202Z,94.78
2023-12-07T08:31:39.052Z,94.67
2023-12-07T08:32:40.071Z,94.67
2023-12-07T08:33:40.684Z,94.67
2023-12-07T08:34:41.164Z,94.56
2023-12-07T08:35:41.965Z,94.46
2023-12-07T08:36:42.795Z,94.04
2023-12-07T08:37:43.668Z,93.93
2023-12-07T08:38:44.475Z,93.93
2023-12-07T08:39:45.356Z,94.10
2023-12-07T08:40:46.225Z,94.10
2023-12-07T08:41:47.006Z,94.21
2023-12-07T08:42:49.684Z,93.99
2023-12-07T08:43:48.483Z,94.10
2023-12-07T08:44:49.259Z,94.21
2023-12-07T08:45:50.112Z,94.10
2023-12-07T08:46:51.009Z,93.99
2023-12-07T08:47:51.636Z,93.99
2023-12-07T08:48:52.518Z,94.10
2023-12-07T08:49:53.508Z,94.10
2023-12-07T08:50:53.828Z,94.21
2023-12-07T08:52:09.496Z,94.31
2023-12-07T08:52:59.920Z,94.17
2023-12-07T08:53:57.550Z,93.95
2023-12-07T08:54:56.968Z,93.85
2023-12-07T08:55:57.765Z,93.74
2023-12-07T08:56:58.609Z,93.91
2023-12-07T08:57:59.477Z,93.91
2023-12-07T08:59:00.275Z,93.91
2023-12-07T09:00:01.116Z,93.80
2023-12-07T09:01:02.143Z,93.91
2023-12-07T09:02:02.622Z,93.91
2023-12-07T09:03:03.574Z,93.80
2023-12-07T09:04:04.489Z,93.70
2023-12-07T09:05:04.922Z,93.59
2023-12-07T09:06:05.846Z,93.49
2023-12-07T09:07:06.762Z,93.49
2023-12-07T09:08:07.631Z,93.44
2023-12-07T09:09:08.464Z,93.55
2023-12-07T09:10:09.344Z,93.34
2023-12-07T09:11:10.236Z,92.96
2023-12-07T09:12:11.048Z,92.86
2023-12-07T09:13:11.884Z,92.86
2023-12-07T09:14:12.702Z,92.96
2023-12-07T09:15:13.612Z,93.07
2023-12-07T09:16:14.413Z,93.18
2023-12-07T09:17:15.244Z,93.18
2023-12-07T09:18:16.137Z,93.24
2023-12-07T09:19:16.984Z,93.02
2023-12-07T09:20:17.762Z,92.82
2023-12-07T09:21:18.594Z,92.71
2023-12-07T09:22:26.127Z,92.61
2023-12-07T09:23:21.235Z,92.61
2023-12-07T09:24:21.021Z,92.50
2023-12-07T09:25:21.861Z,92.29
2023-12-07T09:26:22.686Z,92.29
2023-12-07T09:27:23.823Z,92.40
2023-12-07T09:28:24.240Z,92.40
2023-12-07T09:29:25.058Z,92.40
2023-12-07T09:30:25.935Z,92.35
2023-12-07T09:31:26.747Z,92.35
2023-12-07T09:32:33.601Z,92.25
2023-12-07T09:33:29.351Z,91.94
2023-12-07T09:34:29.220Z,91.72
2023-12-07T09:35:30.037Z,91.72
2023-12-07T09:36:30.871Z,91.83
2023-12-07T09:37:31.824Z,91.83
2023-12-07T09:38:32.613Z,91.83
2023-12-07T09:39:33.439Z,91.72
2023-12-07T09:40:34.367Z,91.62
2023-12-07T09:41:35.161Z,91.72
2023-12-07T09:42:37.109Z,91.68
2023-12-07T09:43:36.673Z,91.68
2023-12-07T09:44:37.456Z,91.58
2023-12-07T09:45:38.316Z,91.68
2023-12-07T09:46:39.244Z,91.68
2023-12-07T09:47:40.386Z,91.58
2023-12-07T09:48:40.925Z,91.47
2023-12-07T09:49:41.777Z,91.27
2023-12-07T09:50:42.478Z,91.58
2023-12-07T09:51:43.307Z,91.79
2023-12-07T09:52:48.030Z,91.79
2023-12-07T09:53:45.869Z,91.79
2023-12-07T09:54:45.684Z,91.79
2023-12-07T09:55:46.591Z,91.79
2023-12-07T09:56:47.382Z,91.43
2023-12-07T09:57:48.217Z,91.33
2023-12-07T09:58:49.062Z,91.33
2023-12-07T09:59:49.733Z,91.22
2023-12-07T10:00:50.453Z,91.12
2023-12-07T10:01:51.278Z,90.91
2023-12-07T10:02:53.822Z,90.70
2023-12-07T10:03:52.959Z,90.70
2023-12-07T10:04:53.877Z,90.55
2023-12-07T10:05:54.744Z,90.23
2023-12-07T10:06:55.562Z,90.23
2023-12-07T10:07:56.374Z,90.23
2023-12-07T10:08:57.214Z,90.23
2023-12-07T10:09:58.055Z,90.23
2023-12-07T10:10:58.905Z,90.13
2023-12-07T10:11:59.718Z,89.82
2023-12-07T10:13:00.582Z,89.82
2023-12-07T10:14:01.416Z,89.72
2023-12-07T10:15:02.276Z,89.72
2023-12-07T10:16:03.172Z,89.09
2023-12-07T10:17:03.988Z,88.35
2023-12-07T10:18:04.867Z,88.04
2023-12-07T10:19:05.804Z,87.20
2023-12-07T10:20:06.475Z,86.46
2023-12-07T10:21:07.272Z,86.88
2023-12-07T10:22:08.146Z,87.09
2023-12-07T10:23:09.157Z,87.09
2023-12-07T10:24:09.494Z,87.05
2023-12-07T10:25:10.396Z,87.16
2023-12-07T10:26:11.187Z,86.85
2023-12-07T10:27:11.987Z,87.05
2023-12-07T10:28:12.908Z,87.47
2023-12-07T10:29:24.113Z,87.47
2023-12-07T10:30:15.491Z,87.26
2023-12-07T10:31:15.326Z,86.63
2023-12-07T10:32:16.147Z,86.74
2023-12-07T10:33:17.128Z,86.28
2023-12-07T10:34:17.516Z,86.80
2023-12-07T10:35:18.355Z,86.60
2023-12-07T10:36:19.164Z,86.60
2023-12-07T10:37:20.069Z,86.80
2023-12-07T10:38:20.891Z,86.49
2023-12-07T10:39:28.988Z,86.28
2023-12-07T10:40:23.470Z,86.18
2023-12-07T10:41:23.298Z,86.38
2023-12-07T10:42:24.099Z,86.60
2023-12-07T10:43:24.963Z,86.49
2023-12-07T10:44:25.800Z,86.35
2023-12-07T10:45:26.646Z,86.66
2023-12-07T10:46:27.468Z,86.35
2023-12-07T10:47:28.492Z,85.82
2023-12-07T10:48:28.811Z,85.82
2023-12-07T10:49:34.496Z,84.46
2023-12-07T10:50:31.448Z,84.99
2023-12-07T10:51:31.257Z,85.51
2023-12-07T10:52:32.107Z,86.04
2023-12-07T10:53:32.941Z,86.24
2023-12-07T10:54:33.749Z,85.58
2023-12-07T10:55:34.626Z,84.84
2023-12-07T10:56:36.889Z,85.05
2023-12-07T10:57:35.975Z,85.47
2023-12-07T10:58:37.054Z,85.68
2023-12-07T10:59:37.371Z,85.78
2023-12-07T11:00:44.695Z,85.36
2023-12-07T11:01:40.096Z,84.53
2023-12-07T11:02:40.151Z,84.42
2023-12-07T11:03:40.579Z,84.53
2023-12-07T11:04:41.496Z,84.95
2023-12-07T11:05:42.502Z,84.74
2023-12-07T11:06:43.326Z,84.84
2023-12-07T11:07:44.226Z,85.16
2023-12-07T11:08:45.230Z,85.26
2023-12-07T11:09:46.005Z,84.53
2023-12-07T11:10:46.888Z,84.53
2023-12-07T11:11:47.696Z,83.59
2023-12-07T11:12:48.504Z,83.44
2023-12-07T11:13:49.364Z,83.65
2023-12-07T11:14:50.168Z,83.65
2023-12-07T11:15:51.129Z,83.65
2023-12-07T11:16:51.975Z,83.76
2023-12-07T11:17:52.883Z,83.76
2023-12-07T11:18:53.865Z,83.93
2023-12-07T11:19:54.734Z,83.93
2023-12-07T11:20:55.548Z,83.83
2023-12-07T11:21:56.450Z,83.93
2023-12-07T11:22:57.290Z,83.62
2023-12-07T11:23:58.124Z,83.83
2023-12-07T11:24:59.084Z,83.72
2023-12-07T11:25:59.905Z,83.93
2023-12-07T11:27:00.718Z,82.74
2023-12-07T11:28:01.535Z,83.06
2023-12-07T11:29:02.367Z,83.89
2023-12-07T11:30:03.217Z,83.47
2023-12-07T11:31:04.143Z,82.32
2023-12-07T11:32:11.564Z,82.22
2023-12-07T11:33:06.881Z,81.90
2023-12-07T11:34:06.715Z,81.70
2023-12-07T11:35:07.568Z,81.38
2023-12-07T11:36:08.383Z,81.28
2023-12-07T11:37:09.323Z,81.80
2023-12-07T11:38:10.245Z,80.96
2023-12-07T11:39:17.424Z,80.96
2023-12-07T11:40:12.784Z,81.28
2023-12-07T11:41:12.596Z,81.80
2023-12-07T11:42:13.448Z,81.80
2023-12-07T11:43:14.287Z,81.70
2023-12-07T11:44:15.087Z,81.70
2023-12-07T11:45:15.909Z,80.44
2023-12-07T11:46:16.863Z,80.65
2023-12-07T11:47:17.790Z,80.44
2023-12-07T11:48:18.976Z,80.86
2023-12-07T11:49:28.695Z,80.76
2023-12-07T11:50:21.073Z,81.24
2023-12-07T11:51:20.884Z,81.45
2023-12-07T11:52:21.830Z,81.66
2023-12-07T11:53:23.133Z,81.87
2023-12-07T11:54:23.194Z,81.66
2023-12-07T11:55:24.087Z,81.56
2023-12-07T11:56:24.917Z,81.56
2023-12-07T11:57:26.113Z,81.56
2023-12-07T11:58:26.640Z,80.37
2023-12-07T11:59:33.688Z,80.27
2023-12-07T12:00:29.187Z,80.20
2023-12-07T12:01:29.201Z,80.27
2023-12-07T12:02:29.511Z,81.10
2023-12-07T12:03:30.357Z,80.37
2023-12-07T12:04:31.408Z,80.20
2023-12-07T12:05:31.939Z,79.95
2023-12-07T12:06:32.783Z,80.05
2023-12-07T12:07:33.615Z,79.64
2023-12-07T12:08:34.431Z,80.99
2023-12-07T12:09:35.276Z,81.41
2023-12-07T12:10:36.181Z,80.58
2023-12-07T12:11:37.041Z,80.68
2023-12-07T12:12:37.913Z,80.89
2023-12-07T12:13:38.698Z,79.74
2023-12-07T12:14:39.586Z,79.85
2023-12-07T12:15:40.839Z,80.68
2023-12-07T12:16:41.226Z,80.51
2023-12-07T12:17:42.116Z,80.41
2023-12-07T12:18:42.621Z,80.09
2023-12-07T12:19:43.306Z,80.37
2023-12-07T12:20:43.661Z,80.68
2023-12-07T12:21:44.481Z,80.79
2023-12-07T12:22:45.370Z,80.99
2023-12-07T12:23:46.201Z,80.89
2023-12-07T12:24:47.028Z,80.58
2023-12-07T12:25:47.895Z,80.37
2023-12-07T12:26:48.695Z,80.68
2023-12-07T12:27:49.545Z,80.47
2023-12-07T12:28:50.511Z,81.10
2023-12-07T12:29:50.904Z,80.05
2023-12-07T12:30:51.782Z,79.64
2023-12-07T12:31:52.578Z,79.19
2023-12-07T12:32:53.442Z,79.71
2023-12-07T12:33:54.258Z,80.75
2023-12-07T12:34:55.192Z,81.16
2023-12-07T12:35:56.008Z,80.65
2023-12-07T12:36:56.858Z,80.96
2023-12-07T12:37:57.725Z,80.65
2023-12-07T12:38:58.636Z,79.50
2023-12-07T12:40:02.127Z,80.13
2023-12-07T12:41:00.395Z,80.71
2023-12-07T12:42:01.190Z,81.34
2023-12-07T12:43:02.034Z,81.55
2023-12-07T12:44:02.858Z,80.71
2023-12-07T12:45:03.714Z,80.61
2023-12-07T12:46:06.475Z,80.51
2023-12-07T12:47:05.156Z,80.40
2023-12-07T12:48:06.122Z,79.67
2023-12-07T12:49:07.000Z,79.67
2023-12-07T12:50:07.898Z,79.77
2023-12-07T12:51:08.847Z,80.19
2023-12-07T12:52:09.707Z,80.51
2023-12-07T12:53:10.496Z,81.13
2023-12-07T12:54:17.523Z,81.45
2023-12-07T12:55:13.082Z,81.45
2023-12-07T12:56:12.901Z,81.55
2023-12-07T12:57:13.824Z,81.34
2023-12-07T12:58:14.735Z,81.13
2023-12-07T12:59:15.541Z,80.82
2023-12-07T13:00:16.370Z,80.92
2023-12-07T13:01:17.286Z,80.92
2023-12-07T13:02:18.177Z,81.13
2023-12-07T13:03:19.046Z,81.34